Latest Weather Observations for Penrith

IDN60801

Issued at 10:32 am EST Monday 31 August 2015 (issued every 30 minutes, with the page automatically refreshed every 10 minutes)

About weather observations | Map of weather stations | Latest weather observations for NSW | Other Formats
Station Details ID: 067113 Name: PENRITH LAKES AWS Lat: -33.72 Lon: 150.68 Height: 24.7 m
Data from the previous 72 hours. | See also: Recent months at Penrith
Date/Time
EST
Temp
°C
App
Temp
°C
Dew
Point
Rel
Hum
%
Delta-T
°C
Wind Press
QNH
hPa
Press
MSL
hPa
Rain
since 9 am
mm
Dir
 
Spd
km/h
Gust
km/h
Spd
kts
Gust
kts
31/10:30am 16.5 14.8 5.8 49 5.2 NNW 4 7 2 4 - - 0.0
31/10:00am 15.2 13.3 5.1 51 4.8 SSE 4 9 2 5 - - 0.0
31/09:30am 14.3 13.0 6.2 58 3.9 SSE 2 6 1 3 - - 0.0
31/09:00am 13.5 12.1 7.1 65 3.1 SSE 4 7 2 4 - - 0.0
31/08:30am 12.4 11.3 7.1 70 2.6 SE 2 6 1 3 - - 0.0
31/08:00am 11.4 10.5 7.9 79 1.7 SE 2 4 1 2 - - 0.0
31/07:30am 10.7 10.3 8.3 85 1.2 CALM 0 4 0 2 - - 0.0
31/07:00am 9.1 7.9 8.2 94 0.4 S 4 6 2 3 - - 0.0
31/06:30am 8.8 7.0 8.0 95 0.4 SW 7 9 4 5 - - 0.0
31/06:00am 8.9 7.6 7.5 91 0.7 SW 4 4 2 2 - - 0.0
31/05:30am 9.6 8.6 7.5 87 1.0 SSE 2 4 1 2 - - 0.0
31/05:00am 10.7 10.1 7.6 81 1.5 CALM 0 0 0 0 - - 0.0
31/04:30am 10.8 10.3 7.9 82 1.4 CALM 0 0 0 0 - - 0.0
31/04:00am 11.3 10.8 7.8 79 1.7 CALM 0 0 0 0 - - 0.0
31/03:30am 11.5 10.9 7.6 77 1.9 CALM 0 0 0 0 - - 0.0
31/03:00am 11.8 11.1 6.9 72 2.3 CALM 0 0 0 0 - - 0.0
31/02:30am 11.8 10.3 6.9 72 2.3 SE 4 4 2 2 - - 0.0
31/02:00am 12.0 11.5 7.7 75 2.1 CALM 0 0 0 0 - - 0.0
31/01:30am 12.2 11.4 6.5 68 2.7 CALM 0 0 0 0 - - 0.0
31/01:00am 12.3 10.3 6.4 67 2.8 SSW 6 7 3 4 - - 0.0
31/12:30am 12.2 10.3 6.5 68 2.7 S 6 9 3 5 - - 0.0
31/12:00am 12.7 11.0 5.8 63 3.2 S 4 6 2 3 - - 0.0
 
Date/Time
EST
Temp
°C
App
Temp
°C
Dew
Point
Rel
Hum
%
Delta-T
°C
Wind Press
QNH
hPa
Press
MSL
hPa
Rain
since 9 am
mm
Dir
 
Spd
km/h
Gust
km/h
Spd
kts
Gust
kts
30/11:30pm 12.7 10.7 6.1 64 3.1 SSW 6 9 3 5 - - 0.0
30/11:00pm 12.9 10.7 6.0 63 3.3 SW 7 9 4 5 - - 0.0
30/10:30pm 12.5 11.0 6.8 68 2.7 SW 4 6 2 3 - - 0.0
30/10:00pm 12.4 10.9 6.7 68 2.7 SSW 4 4 2 2 - - 0.0
30/09:30pm 12.2 10.8 7.3 72 2.4 SW 4 6 2 3 - - 0.0
30/09:00pm 12.1 11.4 6.8 70 2.5 CALM 0 0 0 0 - - 0.0
30/08:30pm 12.3 10.9 7.2 71 2.5 SW 4 4 2 2 - - 0.0
30/08:00pm 12.6 11.1 6.9 68 2.7 WSW 4 6 2 3 - - 0.0
30/07:30pm 12.8 11.1 5.7 62 3.3 SSW 4 6 2 3 - - 0.0
30/07:00pm 13.5 12.5 5.4 58 3.8 CALM 0 0 0 0 - - 0.0
30/06:30pm 13.6 11.4 5.5 58 3.8 SE 6 11 3 6 - - 0.0
30/06:00pm 14.3 11.6 5.7 56 4.1 SE 9 13 5 7 - - 0.0
30/05:30pm 15.3 12.2 5.5 52 4.7 SSE 11 17 6 9 - - 0.0
30/05:00pm 16.1 13.0 3.5 43 5.8 SSE 9 13 5 7 - - 0.0
30/04:30pm 16.4 13.7 3.5 42 5.9 SSE 7 11 4 6 - - 0.0
30/04:00pm 16.7 13.6 3.4 41 6.1 S 9 13 5 7 - - 0.0
30/03:30pm 17.0 13.8 3.3 40 6.3 S 9 15 5 8 - - 0.0
30/03:00pm 17.5 13.5 3.0 38 6.7 S 13 19 7 10 - - 0.0
30/02:30pm 17.8 13.7 2.5 36 7.0 SSW 13 17 7 9 - - 0.0
30/02:00pm 18.9 15.7 3.1 35 7.4 SSE 9 19 5 10 - - 0.0
30/01:30pm 18.3 15.3 2.2 34 7.3 S 7 15 4 8 - - 0.0
30/01:00pm 17.7 14.3 2.1 35 7.1 S 9 17 5 9 - - 0.0
30/12:30pm 17.7 14.1 2.8 37 6.8 SSE 11 20 6 11 - - 0.0
30/12:00pm 17.2 13.5 2.4 37 6.7 SSE 11 22 6 12 - - 0.0
30/11:30am 16.9 13.7 2.9 39 6.4 SSE 9 19 5 10 - - 0.0
30/11:00am 16.2 12.9 2.6 40 6.1 SSE 9 15 5 8 - - 0.0
30/10:30am 14.5 12.3 3.3 47 5.1 S 4 7 2 4 - - 0.0
30/10:00am 13.5 12.1 3.6 51 4.5 CALM 0 4 0 2 - - 0.0
30/09:30am 12.3 10.6 4.0 57 3.7 ENE 2 6 1 3 - - 0.0
30/09:00am 10.8 8.7 4.0 63 3.0 N 4 6 2 3 - - 0.0
30/08:30am 9.1 7.2 5.1 76 1.8 N 4 6 2 3 - - 0.0
30/08:00am 7.7 6.0 6.0 89 0.8 N 4 6 2 3 - - 0.0
30/07:30am 7.2 6.5 6.8 97 0.2 CALM 0 6 0 3 - - 0.0
30/07:00am 5.3 4.2 5.0 98 0.1 CALM 0 0 0 0 - - 0.0
30/06:30am 4.6 3.3 4.2 97 0.2 CALM 0 0 0 0 - - 0.0
30/06:00am 4.9 3.7 4.5 97 0.2 CALM 0 0 0 0 - - 0.0
30/05:30am 4.7 3.4 4.3 97 0.2 CALM 0 0 0 0 - - 0.0
30/05:00am 5.2 4.0 4.8 97 0.2 CALM 0 0 0 0 - - 0.0
30/04:30am 5.3 4.1 4.7 96 0.3 CALM 0 0 0 0 - - 0.0
30/04:00am 5.5 4.3 4.5 93 0.4 CALM 0 0 0 0 - - 0.0
30/03:30am 5.3 3.2 3.8 90 0.6 SSW 4 6 2 3 - - 0.0
30/03:00am 5.4 3.4 4.2 92 0.5 S 4 6 2 3 - - 0.0
30/02:30am 5.9 4.0 4.7 92 0.5 SSW 4 7 2 4 - - 0.0
30/02:00am 6.6 5.1 4.9 89 0.7 ESE 2 2 1 1 - - 0.0
30/01:30am 6.9 5.7 4.4 84 1.1 CALM 0 2 0 1 - - 0.0
30/01:00am 7.3 6.0 4.1 80 1.4 CALM 0 0 0 0 - - 0.0
30/12:30am 7.8 5.5 2.9 71 2.1 S 4 4 2 2 - - 0.0
30/12:00am 9.3 7.1 1.2 57 3.3 SW 2 4 1 2 - - 0.0
 
Date/Time
EST
Temp
°C
App
Temp
°C
Dew
Point
Rel
Hum
%
Delta-T
°C
Wind Press
QNH
hPa
Press
MSL
hPa
Rain
since 9 am
mm
Dir
 
Spd
km/h
Gust
km/h
Spd
kts
Gust
kts
29/11:30pm 9.9 6.4 1.0 54 3.7 S 9 13 5 7 - - 0.0
29/11:00pm 8.8 5.8 2.2 63 2.8 SSE 7 11 4 6 - - 0.0
29/10:30pm 9.3 6.6 2.4 62 2.9 SSE 6 9 3 5 - - 0.0
29/10:00pm 10.2 7.7 1.6 55 3.6 SSE 4 11 2 6 - - 0.0
29/09:30pm 12.0 8.4 0.8 46 4.7 WSW 9 15 5 8 - - 0.0
29/09:00pm 12.3 8.4 1.3 47 4.7 WSW 11 20 6 11 - - 0.0
29/08:30pm 11.9 8.9 1.8 50 4.3 S 7 11 4 6 - - 0.0
29/08:00pm 12.0 8.2 1.9 50 4.3 SSW 11 15 6 8 - - 0.0
29/07:30pm 13.3 9.1 1.9 46 4.9 SW 13 19 7 10 - - 0.0
29/07:00pm 12.8 9.9 2.4 49 4.5 S 7 13 4 7 - - 0.0
29/06:30pm 14.4 10.9 1.3 41 5.7 W 9 15 5 8 - - 0.0
29/06:00pm 15.2 11.3 1.0 38 6.1 W 11 15 6 8 - - 0.0
29/05:30pm 16.1 12.6 1.4 37 6.5 W 9 17 5 9 - - 0.0
29/05:00pm 17.7 13.4 1.2 33 7.3 WNW 13 20 7 11 - - 0.0
29/04:30pm 18.7 14.9 1.7 32 7.7 W 11 17 6 9 - - 0.0
29/04:00pm 19.3 14.7 1.3 30 8.1 W 15 22 8 12 - - 0.0
29/03:30pm 20.2 18.2 4.3 35 7.7 WNW 4 9 2 5 - - 0.0
29/03:00pm 20.0 18.2 3.3 33 7.9 NW 2 4 1 2 - - 0.0
29/02:30pm 19.7 17.1 3.0 33 7.8 WSW 6 9 3 5 - - 0.0
29/02:00pm 19.3 16.8 3.5 35 7.4 N 6 9 3 5 - - 0.0
29/01:30pm 18.4 16.2 3.1 36 7.1 SSE 4 7 2 4 - - 0.0
29/01:00pm 18.4 15.8 3.1 36 7.1 S 6 7 3 4 - - 0.0
29/12:30pm 18.3 15.9 4.1 39 6.7 S 6 9 3 5 - - 0.0
29/12:00pm 17.7 15.2 3.9 40 6.5 E 6 7 3 4 - - 0.0
29/11:30am 17.1 14.8 4.8 44 5.9 NNE 6 11 3 6 - - 0.0
29/11:00am 16.8 15.0 7.2 53 4.8 SSE 6 11 3 6 - - 0.0
29/10:30am 15.5 14.4 7.0 57 4.2 W 2 4 1 2 - - 0.0
29/10:00am 14.6 13.7 7.6 63 3.5 WNW 2 6 1 3 - - 0.0
29/09:30am 12.9 11.8 7.1 68 2.8 E 2 4 1 2 - - 0.0
29/09:00am 10.6 9.8 6.6 76 1.9 CALM 0 0 0 0 - - 0.0
29/08:30am 9.6 8.8 6.5 81 1.4 CALM 0 2 0 1 - - 0.0
29/08:00am 8.7 7.3 7.2 90 0.7 NE 4 6 2 3 - - 0.0
29/07:30am 8.4 8.0 8.1 98 0.1 CALM 0 0 0 0 - - 0.0
29/07:00am 7.2 6.5 6.9 98 0.1 CALM 0 0 0 0 - - 0.0
29/06:30am 6.2 5.2 5.8 97 0.2 CALM 0 2 0 1 - - 0.0
29/06:00am 6.4 5.5 6.0 97 0.2 CALM 0 0 0 0 - - 0.0
29/05:30am 6.5 5.6 6.1 97 0.2 CALM 0 0 0 0 - - 0.0
29/05:00am 7.1 6.0 6.7 97 0.2 NW 2 4 1 2 - - 0.0
29/04:30am 7.0 6.2 6.4 96 0.3 CALM 0 0 0 0 - - 0.0
29/04:00am 6.9 4.8 6.0 94 0.4 SSE 6 7 3 4 - - 0.0
29/03:30am 7.0 5.0 6.3 95 0.3 SW 6 7 3 4 - - 0.0
29/03:00am 7.3 5.7 6.4 94 0.4 SE 4 6 2 3 - - 0.0
29/02:30am 7.8 6.0 7.1 95 0.3 SE 6 6 3 3 - - 0.0
29/02:00am 8.2 7.6 7.4 95 0.4 CALM 0 0 0 0 - - 0.0
29/01:30am 8.5 7.5 7.3 92 0.6 SSE 2 2 1 1 - - 0.0
29/01:00am 8.5 7.9 7.3 92 0.6 CALM 0 4 0 2 - - 0.0
29/12:30am 9.0 8.0 7.5 90 0.7 S 2 4 1 2 - - 0.0
29/12:00am 9.3 8.3 7.3 87 0.9 SE 2 4 1 2 - - 0.0
 
Date/Time
EST
Temp
°C
App
Temp
°C
Dew
Point
Rel
Hum
%
Delta-T
°C
Wind Press
QNH
hPa
Press
MSL
hPa
Rain
since 9 am
mm
Dir
 
Spd
km/h
Gust
km/h
Spd
kts
Gust
kts
28/11:30pm 9.6 8.2 7.4 86 1.0 SSE 4 4 2 2 - - 0.0
28/11:00pm 10.1 9.1 7.3 83 1.3 S 2 4 1 2 - - 0.0
28/10:30pm 10.7 9.8 7.8 82 1.4 SSE 2 2 1 1 - - 0.0
28/10:00pm 11.3 10.3 7.4 77 1.9 SE 2 2 1 1 - - 0.0
28/09:30pm 12.2 10.3 6.9 70 2.5 NW 6 7 3 4 - - 0.0
28/09:00pm 11.9 11.3 7.4 74 2.2 CALM 0 0 0 0 - - 0.0
28/08:30pm 12.2 11.2 7.3 72 2.4 S 2 2 1 1 - - 0.0
28/08:00pm 12.6 11.1 6.6 67 2.9 WSW 4 6 2 3 - - 0.0
28/07:30pm 14.1 12.7 5.5 56 4.1 SE 2 4 1 2 - - 0.0
28/07:00pm 14.8 13.5 5.9 55 4.3 SSW 2 7 1 4 - - 0.0
28/06:30pm 15.1 13.6 6.9 58 4.0 ESE 4 6 2 3 - - 0.0
28/06:00pm 15.8 13.7 5.7 51 4.8 W 6 9 3 5 - - 0.0
28/05:30pm 16.9 15.4 5.2 46 5.6 W 2 7 1 4 - - 0.0
28/05:00pm 17.5 15.4 5.8 46 5.7 WSW 6 7 3 4 - - 0.0
28/04:30pm 18.3 15.8 4.8 41 6.5 SSW 7 9 4 5 - - 0.0
28/04:00pm 18.2 15.7 4.7 41 6.5 SSW 7 9 4 5 - - 0.0
28/03:30pm 18.3 15.0 4.8 41 6.5 SSW 11 15 6 8 - - 0.0
28/03:00pm 18.4 14.7 4.6 40 6.6 SSW 13 17 7 9 - - 0.0
28/02:30pm 18.6 15.7 4.4 39 6.8 S 9 17 5 9 - - 0.0
28/02:00pm 19.3 15.7 5.0 39 6.9 SSW 13 22 7 12 - - 0.0
28/01:30pm 18.6 14.5 4.4 39 6.8 SSW 15 24 8 13 - - 0.0
28/01:00pm 18.8 16.3 4.9 40 6.7 SSW 7 19 4 10 - - 0.0
28/12:30pm 19.1 16.5 6.2 43 6.4 SW 9 20 5 11 - - 0.0
28/12:00pm 18.3 14.7 5.2 42 6.3 SW 13 24 7 13 - - 0.0
28/11:30am 18.1 15.0 5.7 44 6.1 WSW 11 19 6 10 - - 0.0
28/11:00am 17.5 13.0 4.1 41 6.3 W 17 26 9 14 - - 0.0

Other Formats:

Comma delimited format used in spreadsheet applications
http://www.bom.gov.au/fwo/IDN60801/IDN60801.94763.axf

JavaScript Object Notation format (JSON) in row-major order
http://www.bom.gov.au/fwo/IDN60801/IDN60801.94763.json